Time;durP1;ratioP1;P1;durP2;ratioP2;P2;SDS_P1;SDS_P2;PMS_P1;PMS_P2;Temp;Humidity;BMP_temperature;BMP_pressure;BME280_temperature;BME280_humidity;BME280_pressure;Samples;Min_cycle;Max_cycle;Signal;HPM_P1;HPM_P2
2023/05/31 00:00:20;;;;;;;1.63;0.73;;;13.20;73.30;;;;;;6124822;23;20021;-77
2023/05/31 00:02:50;;;;;;;2.08;0.80;;;13.20;73.30;;;;;;6101121;23;20029;-77
2023/05/31 00:05:17;;;;;;;2.78;0.80;;;13.20;73.50;;;;;;6076984;23;20041;-82
2023/05/31 00:07:44;;;;;;;1.85;0.70;;;13.10;73.60;;;;;;6076218;23;20091;-82
2023/05/31 00:10:11;;;;;;;3.53;1.00;;;13.10;73.70;;;;;;6076577;23;20385;-83
2023/05/31 00:12:38;;;;;;;1.70;0.68;;;13.10;73.80;;;;;;6099343;23;20044;-82
2023/05/31 00:15:06;;;;;;;1.90;1.00;;;13.10;73.90;;;;;;6100452;23;20029;-82
2023/05/31 00:17:33;;;;;;;2.88;0.80;;;13.10;74.10;;;;;;6100203;23;20045;-82
2023/05/31 00:20:03;;;;;;;3.15;1.05;;;13.00;74.20;;;;;;6100738;23;20030;-82
2023/05/31 00:22:30;;;;;;;2.35;0.90;;;13.00;74.40;;;;;;6124672;23;20519;-82
2023/05/31 00:24:57;;;;;;;3.15;0.98;;;12.90;74.60;;;;;;6124301;23;20365;-82
2023/05/31 00:27:24;;;;;;;3.85;1.40;;;12.90;74.80;;;;;;6123935;23;20021;-82
2023/05/31 00:29:51;;;;;;;2.08;0.80;;;12.90;74.80;;;;;;6149066;23;20056;-82
2023/05/31 00:32:18;;;;;;;2.63;1.10;;;12.90;74.90;;;;;;6099783;23;20014;-82
2023/05/31 00:34:45;;;;;;;3.90;1.05;;;12.80;75.00;;;;;;6124544;23;20026;-82
2023/05/31 00:37:12;;;;;;;4.05;1.33;;;12.80;75.30;;;;;;6100206;23;20021;-82
2023/05/31 00:39:39;;;;;;;3.45;1.10;;;12.80;75.40;;;;;;6124368;23;20364;-81
2023/05/31 00:42:07;;;;;;;2.13;0.88;;;12.80;75.40;;;;;;6124125;23;20405;-82
2023/05/31 00:44:35;;;;;;;2.50;0.80;;;12.80;75.40;;;;;;6076386;23;20029;-82
2023/05/31 00:47:06;;;;;;;2.33;0.70;;;12.80;75.40;;;;;;6124329;23;20025;-82
2023/05/31 00:49:34;;;;;;;1.85;0.80;;;12.80;75.50;;;;;;6125584;23;20025;-82
2023/05/31 00:52:01;;;;;;;2.50;0.95;;;12.70;75.60;;;;;;6099655;23;20022;-82
2023/05/31 00:54:28;;;;;;;2.85;1.30;;;12.70;75.80;;;;;;6124027;23;20077;-82
2023/05/31 00:56:55;;;;;;;2.70;0.90;;;12.70;75.90;;;;;;6099804;23;20024;-82
2023/05/31 00:59:23;;;;;;;2.92;0.80;;;12.60;75.90;;;;;;6148439;23;20361;-82
2023/05/31 01:01:51;;;;;;;2.13;0.70;;;12.70;76.00;;;;;;6075996;23;20069;-82
2023/05/31 01:04:18;;;;;;;4.15;1.23;;;12.60;76.00;;;;;;6100211;23;20026;-82
2023/05/31 01:06:46;;;;;;;3.03;0.98;;;12.60;76.20;;;;;;6100033;23;20105;-82
2023/05/31 01:09:16;;;;;;;2.80;1.20;;;12.60;76.40;;;;;;6100201;23;20045;-81
2023/05/31 01:12:06;;;;;;;2.67;0.93;;;12.60;76.60;;;;;;6123944;23;20352;-82
2023/05/31 01:15:09;;;;;;;2.75;1.00;;;12.50;76.70;;;;;;6123968;23;20056;-82
2023/05/31 01:17:48;;;;;;;3.42;1.13;;;12.50;76.70;;;;;;6123752;23;20092;-82
2023/05/31 01:20:19;;;;;;;2.25;1.02;;;12.50;76.90;;;;;;6124297;23;20456;-82
2023/05/31 01:22:57;;;;;;;2.58;0.98;;;12.40;77.00;;;;;;6123553;23;20480;-82
2023/05/31 01:26:00;;;;;;;3.45;1.45;;;12.40;77.00;;;;;;6148268;23;20104;-77
2023/05/31 01:28:30;;;;;;;3.08;1.10;;;12.40;77.30;;;;;;6148025;23;20025;-77
2023/05/31 01:31:01;;;;;;;5.07;1.88;;;12.30;77.30;;;;;;6148089;23;20018;-77
2023/05/31 01:33:33;;;;;;;3.22;1.10;;;12.40;77.50;;;;;;6148241;23;20025;-77
2023/05/31 01:36:01;;;;;;;3.55;1.42;;;12.30;77.50;;;;;;6100389;23;20508;-77
2023/05/31 01:38:29;;;;;;;2.97;1.17;;;12.30;78.20;;;;;;6075819;23;20105;-76
2023/05/31 01:40:57;;;;;;;3.03;1.23;;;12.30;77.60;;;;;;6075471;23;20030;-82
2023/05/31 01:43:27;;;;;;;4.07;1.33;;;12.30;77.60;;;;;;6123791;23;20029;-81
2023/05/31 01:45:57;;;;;;;4.97;1.45;;;12.30;77.70;;;;;;6104239;23;20044;-82
2023/05/31 01:48:26;;;;;;;4.32;1.50;;;12.30;77.90;;;;;;6152900;23;20329;-82
2023/05/31 01:50:56;;;;;;;4.38;1.55;;;12.30;77.90;;;;;;6129009;23;20104;-82
2023/05/31 01:53:24;;;;;;;2.42;1.08;;;12.30;77.90;;;;;;6152996;23;20022;-82
2023/05/31 01:55:53;;;;;;;4.22;1.40;;;12.30;78.00;;;;;;6104566;23;20051;-81
2023/05/31 01:58:21;;;;;;;4.22;2.00;;;12.30;78.00;;;;;;6080432;23;20061;-81
2023/05/31 02:00:49;;;;;;;5.13;2.30;;;12.30;78.20;;;;;;6104598;23;20026;-81
2023/05/31 02:03:18;;;;;;;4.47;2.15;;;12.30;78.50;;;;;;6104420;23;20021;-82
2023/05/31 02:05:58;;;;;;;6.85;3.08;;;12.30;78.40;;;;;;6128903;23;20022;-82
2023/05/31 02:08:26;;;;;;;5.25;2.70;;;12.40;78.70;;;;;;6129022;23;20018;-82
2023/05/31 02:10:56;;;;;;;6.30;2.53;;;12.30;78.60;;;;;;6153015;23;20025;-82
2023/05/31 02:13:26;;;;;;;4.13;2.25;;;12.30;78.60;;;;;;6104479;23;20017;-82
2023/05/31 02:15:54;;;;;;;5.47;2.25;;;12.30;78.60;;;;;;6152858;23;20121;-82
2023/05/31 02:18:27;;;;;;;5.82;2.08;;;12.30;78.70;;;;;;6152820;23;20025;-82
2023/05/31 02:20:55;;;;;;;4.95;2.08;;;12.30;78.80;;;;;;6104258;23;20031;-81
2023/05/31 02:23:22;;;;;;;4.80;2.35;;;12.30;78.90;;;;;;6128471;23;20026;-81
2023/05/31 02:25:50;;;;;;;4.82;2.50;;;12.20;78.90;;;;;;6128487;23;20026;-82
2023/05/31 02:28:17;;;;;;;4.97;2.33;;;12.30;79.20;;;;;;6128397;23;20021;-81
2023/05/31 02:30:59;;;;;;;6.65;2.65;;;12.20;79.30;;;;;;6152798;23;20027;-81
2023/05/31 02:33:30;;;;;;;5.32;2.72;;;12.20;79.60;;;;;;6151930;23;20018;-81
2023/05/31 02:36:00;;;;;;;7.35;2.80;;;12.10;79.60;;;;;;6107027;23;20021;-82
2023/05/31 02:38:29;;;;;;;5.22;2.55;;;12.10;79.80;;;;;;6105669;23;20029;-81
2023/05/31 02:40:56;;;;;;;5.40;2.30;;;12.10;79.80;;;;;;6130231;23;20033;-82
2023/05/31 02:43:23;;;;;;;4.93;2.67;;;12.10;79.90;;;;;;6081915;23;20041;-81
2023/05/31 02:45:51;;;;;;;5.60;2.67;;;12.00;79.90;;;;;;6082163;23;20081;-82
2023/05/31 02:48:19;;;;;;;3.88;1.83;;;12.00;80.00;;;;;;6130561;23;20448;-82
2023/05/31 02:50:46;;;;;;;5.13;1.65;;;12.00;80.00;;;;;;6106477;23;20092;-82
2023/05/31 02:53:33;;;;;;;4.32;1.90;;;12.00;80.00;;;;;;6119312;23;20052;-82
2023/05/31 02:56:08;;;;;;;5.07;2.08;;;12.10;80.00;;;;;;6107404;23;20060;-82
2023/05/31 02:58:41;;;;;;;5.28;2.03;;;12.10;80.10;;;;;;6131852;23;20032;-77
2023/05/31 03:01:26;;;;;;;5.07;2.03;;;12.00;80.00;;;;;;6134030;23;20044;-77
2023/05/31 03:04:11;;;;;;;6.40;2.63;;;12.00;80.00;;;;;;6109232;23;20093;-77
2023/05/31 03:06:39;;;;;;;5.32;2.47;;;12.00;80.10;;;;;;6105534;23;20048;-75
2023/05/31 03:09:07;;;;;;;7.05;3.03;;;12.10;80.30;;;;;;6130078;23;20022;-76
2023/05/31 03:11:36;;;;;;;5.90;2.60;;;12.10;80.30;;;;;;6106567;23;20059;-78
2023/05/31 03:14:03;;;;;;;6.63;3.17;;;12.00;80.30;;;;;;6106021;23;20025;-77
2023/05/31 03:16:44;;;;;;;6.50;2.30;;;12.00;80.40;;;;;;6108440;23;20022;-77
2023/05/31 03:19:13;;;;;;;4.68;2.17;;;12.00;80.40;;;;;;6154043;23;20423;-77
2023/05/31 03:21:43;;;;;;;5.28;1.98;;;12.00;80.50;;;;;;6106353;23;20025;-77
2023/05/31 03:24:13;;;;;;;5.88;2.80;;;12.00;80.50;;;;;;6105816;23;20052;-77
2023/05/31 03:26:40;;;;;;;5.45;2.63;;;12.00;80.70;;;;;;6129801;23;20520;-77
2023/05/31 03:29:07;;;;;;;5.88;2.22;;;12.00;80.70;;;;;;6105612;23;20025;-77
2023/05/31 03:31:34;;;;;;;4.53;2.15;;;12.00;80.70;;;;;;6105259;23;20467;-77
2023/05/31 03:34:02;;;;;;;5.53;2.35;;;12.00;80.70;;;;;;6081842;23;20116;-77
2023/05/31 03:36:31;;;;;;;4.88;2.05;;;12.00;80.80;;;;;;6105739;23;20348;-77
2023/05/31 03:39:02;;;;;;;5.05;2.10;;;12.00;80.90;;;;;;6107107;23;20100;-77
2023/05/31 03:41:32;;;;;;;6.03;2.50;;;12.00;80.90;;;;;;6130332;23;20017;-77
2023/05/31 03:43:59;;;;;;;5.32;2.50;;;12.00;81.00;;;;;;6128696;23;20456;-77
2023/05/31 03:46:27;;;;;;;7.13;2.90;;;11.90;81.00;;;;;;6081633;23;20440;-77
2023/05/31 03:48:54;;;;;;;4.40;1.92;;;11.90;81.00;;;;;;6129241;23;20072;-77
2023/05/31 03:51:24;;;;;;;4.38;1.98;;;11.90;81.00;;;;;;6106796;23;20344;-77
2023/05/31 03:53:51;;;;;;;6.20;2.30;;;12.00;81.00;;;;;;6129705;23;20540;-77
2023/05/31 03:56:18;;;;;;;6.05;2.28;;;12.00;81.00;;;;;;6129487;23;20021;-82
2023/05/31 03:58:45;;;;;;;5.00;1.83;;;12.00;81.00;;;;;;6104967;23;20076;-82
2023/05/31 04:01:14;;;;;;;8.05;2.75;;;12.00;81.10;;;;;;6105424;23;20028;-83
2023/05/31 04:03:42;;;;;;;6.55;2.70;;;12.00;81.20;;;;;;6153754;23;20018;-82
2023/05/31 04:06:10;;;;;;;4.30;2.33;;;12.00;81.20;;;;;;6105639;23;20084;-82
2023/05/31 04:08:38;;;;;;;6.28;2.13;;;12.00;81.20;;;;;;6129295;23;20021;-83
2023/05/31 04:11:05;;;;;;;7.85;3.13;;;12.00;81.20;;;;;;6105510;23;20399;-83
2023/05/31 04:13:32;;;;;;;5.30;2.50;;;12.00;81.30;;;;;;6105047;23;20026;-82
2023/05/31 04:15:59;;;;;;;5.00;2.17;;;12.00;81.30;;;;;;6129580;23;20021;-82
2023/05/31 04:18:26;;;;;;;6.43;2.63;;;12.00;81.30;;;;;;6105192;23;20320;-83
2023/05/31 04:20:54;;;;;;;6.10;2.80;;;12.00;81.30;;;;;;6105384;23;20025;-82
2023/05/31 04:23:21;;;;;;;7.20;2.95;;;11.90;81.50;;;;;;6081443;23;20017;-82
2023/05/31 04:25:50;;;;;;;6.18;3.20;;;11.90;81.60;;;;;;6105052;23;20041;-82
2023/05/31 04:28:18;;;;;;;5.53;2.80;;;11.90;81.70;;;;;;6128952;23;20401;-82
2023/05/31 04:30:46;;;;;;;6.55;3.15;;;11.90;81.70;;;;;;6153149;23;20071;-82
2023/05/31 04:33:17;;;;;;;6.43;2.92;;;12.00;82.40;;;;;;6153548;23;20028;-82
2023/05/31 04:35:44;;;;;;;6.15;2.70;;;11.90;81.70;;;;;;6105990;23;20017;-82
2023/05/31 04:38:11;;;;;;;6.28;3.58;;;12.00;81.80;;;;;;6129033;23;20028;-82
2023/05/31 04:40:42;;;;;;;9.20;3.88;;;12.00;81.80;;;;;;6105268;23;20483;-82
2023/05/31 04:43:12;;;;;;;7.10;3.13;;;12.00;81.80;;;;;;6129333;23;20022;-82
2023/05/31 04:45:40;;;;;;;6.72;3.22;;;12.00;81.80;;;;;;6100237;23;20049;-82
2023/05/31 04:48:08;;;;;;;7.22;3.67;;;12.00;81.60;;;;;;6123995;23;20021;-82
2023/05/31 04:50:35;;;;;;;6.65;3.22;;;12.00;81.60;;;;;;6148689;23;20029;-82
2023/05/31 04:53:05;;;;;;;6.85;3.35;;;12.00;81.80;;;;;;6123851;23;20046;-82
2023/05/31 04:55:32;;;;;;;6.13;3.63;;;12.00;81.90;;;;;;6123934;23;20097;-82
2023/05/31 04:58:05;;;;;;;7.57;4.22;;;12.00;81.90;;;;;;6124029;23;20076;-82
2023/05/31 05:00:32;;;;;;;7.00;3.30;;;12.00;82.00;;;;;;6099767;23;20018;-82
2023/05/31 05:03:10;;;;;;;9.70;3.90;;;12.10;82.00;;;;;;6103515;23;20028;-82
2023/05/31 05:05:37;;;;;;;10.70;4.75;;;12.10;82.00;;;;;;6148467;23;20024;-82
2023/05/31 05:08:07;;;;;;;9.85;4.20;;;12.10;82.10;;;;;;6124075;23;20076;-82
2023/05/31 05:10:36;;;;;;;9.55;4.70;;;12.10;82.00;;;;;;6077542;23;20429;-82
2023/05/31 05:13:04;;;;;;;5.85;3.33;;;12.20;81.90;;;;;;6075980;23;20026;-82
2023/05/31 05:15:34;;;;;;;7.97;3.88;;;12.20;81.90;;;;;;6124133;23;20073;-82
2023/05/31 05:18:02;;;;;;;8.50;4.25;;;12.30;81.80;;;;;;6124061;23;20025;-82
2023/05/31 05:20:31;;;;;;;7.38;3.75;;;12.40;81.80;;;;;;6100093;23;20032;-82
2023/05/31 05:23:01;;;;;;;8.57;4.30;;;12.40;81.70;;;;;;6148306;23;20455;-82
2023/05/31 05:25:29;;;;;;;7.63;3.92;;;12.50;81.60;;;;;;6123729;23;20022;-82
2023/05/31 05:27:56;;;;;;;7.15;4.20;;;12.50;81.50;;;;;;6148254;23;20025;-82
2023/05/31 05:30:23;;;;;;;5.47;2.90;;;12.60;81.50;;;;;;6099400;23;20084;-82
2023/05/31 05:32:50;;;;;;;7.85;4.13;;;12.70;81.90;;;;;;6099458;23;20453;-82
2023/05/31 05:35:21;;;;;;;6.97;3.92;;;12.80;81.10;;;;;;6099673;23;20413;-82
2023/05/31 05:37:52;;;;;;;8.40;4.20;;;12.90;80.90;;;;;;6099952;23;20026;-82
2023/05/31 05:40:20;;;;;;;6.20;3.50;;;13.00;80.70;;;;;;6099743;23;20100;-82
2023/05/31 05:42:49;;;;;;;8.30;4.25;;;13.10;80.40;;;;;;6099677;23;20353;-82
2023/05/31 05:45:16;;;;;;;6.80;3.42;;;13.30;80.20;;;;;;6147821;23;20033;-82
2023/05/31 05:47:45;;;;;;;7.18;3.88;;;13.40;80.00;;;;;;6148662;23;20088;-82
2023/05/31 05:50:15;;;;;;;6.20;3.42;;;13.40;79.80;;;;;;6124869;23;20357;-82
2023/05/31 05:52:43;;;;;;;6.03;3.22;;;13.50;79.70;;;;;;6099040;23;20077;-82
2023/05/31 05:55:10;;;;;;;8.27;4.45;;;13.70;79.50;;;;;;6075628;23;20029;-82
2023/05/31 05:57:37;;;;;;;7.53;3.85;;;13.80;79.30;;;;;;6099513;23;20354;-81
2023/05/31 06:00:28;;;;;;;8.25;3.55;;;13.90;79.20;;;;;;6115780;23;20097;-82
2023/05/31 06:02:55;;;;;;;8.00;3.55;;;14.00;79.00;;;;;;6099417;23;20022;-82
2023/05/31 06:05:26;;;;;;;8.60;3.50;;;14.10;78.80;;;;;;6147902;23;20092;-82
2023/05/31 06:07:54;;;;;;;7.82;3.97;;;14.20;78.70;;;;;;6100836;23;20069;-82
2023/05/31 06:10:21;;;;;;;7.10;3.47;;;14.30;78.50;;;;;;6100110;23;20038;-82
2023/05/31 06:12:48;;;;;;;6.22;3.45;;;14.30;78.20;;;;;;6101385;23;20036;-82
2023/05/31 06:15:17;;;;;;;5.60;2.80;;;14.50;78.10;;;;;;6125823;23;20351;-82
2023/05/31 06:17:44;;;;;;;5.05;2.80;;;14.70;77.90;;;;;;6101304;23;20048;-77
2023/05/31 06:20:11;;;;;;;4.60;2.45;;;14.70;77.40;;;;;;6101291;23;20124;-77
2023/05/31 06:22:39;;;;;;;5.45;2.30;;;14.90;77.20;;;;;;6101234;23;20022;-77
2023/05/31 06:25:07;;;;;;;5.18;2.35;;;15.00;77.50;;;;;;6125732;23;20022;-77
2023/05/31 06:27:35;;;;;;;4.70;2.10;;;15.10;76.60;;;;;;6077541;23;20097;-77
2023/05/31 06:30:03;;;;;;;5.65;2.55;;;15.20;76.40;;;;;;6125540;23;20026;-77
2023/05/31 06:32:41;;;;;;;4.90;2.17;;;15.30;76.20;;;;;;6106222;23;20018;-77
2023/05/31 06:35:09;;;;;;;5.40;2.67;;;15.40;76.00;;;;;;6077394;23;20068;-77
2023/05/31 06:37:39;;;;;;;4.28;1.95;;;15.50;75.80;;;;;;6101721;23;20495;-77
2023/05/31 06:40:07;;;;;;;7.85;2.70;;;15.60;75.50;;;;;;6125177;23;20030;-77
2023/05/31 06:42:37;;;;;;;4.00;1.98;;;15.70;75.30;;;;;;6125970;23;20464;-77
2023/05/31 06:45:19;;;;;;;6.95;2.60;;;15.80;75.10;;;;;;6126941;23;20029;-77
2023/05/31 06:47:48;;;;;;;5.32;2.30;;;15.90;74.90;;;;;;6101663;23;20077;-77
2023/05/31 06:50:22;;;;;;;5.03;1.92;;;16.00;74.70;;;;;;6125404;23;20088;-77
2023/05/31 06:53:12;;;;;;;4.68;1.63;;;16.10;74.40;;;;;;6126796;23;20037;-77
2023/05/31 06:55:46;;;;;;;4.43;1.75;;;16.30;74.10;;;;;;6103367;23;20042;-77
2023/05/31 06:58:18;;;;;;;3.88;1.60;;;16.40;73.80;;;;;;6078787;23;20449;-82
2023/05/31 07:00:47;;;;;;;2.85;1.10;;;16.50;73.60;;;;;;6125810;23;20022;-82
2023/05/31 07:03:14;;;;;;;3.22;1.23;;;16.60;73.40;;;;;;6124970;23;20014;-82
2023/05/31 07:05:43;;;;;;;2.90;1.38;;;16.80;73.20;;;;;;6101236;23;20053;-82
2023/05/31 07:08:11;;;;;;;4.00;1.27;;;16.90;73.00;;;;;;6125586;23;20022;-82
2023/05/31 07:10:58;;;;;;;3.75;1.30;;;17.00;72.80;;;;;;6061172;23;20052;-81
2023/05/31 07:13:26;;;;;;;4.28;1.52;;;17.10;72.50;;;;;;6125142;23;20065;-82
2023/05/31 07:15:53;;;;;;;3.90;1.48;;;17.20;72.30;;;;;;6100703;23;20034;-82
2023/05/31 07:18:21;;;;;;;2.55;1.23;;;17.40;72.00;;;;;;6149494;23;20022;-82
2023/05/31 07:20:56;;;;;;;5.40;1.20;;;17.50;71.80;;;;;;6149091;23;20026;-81
2023/05/31 07:23:25;;;;;;;3.00;1.40;;;17.60;71.60;;;;;;6100877;23;20023;-82
2023/05/31 07:25:52;;;;;;;3.53;1.35;;;17.70;71.30;;;;;;6125018;23;20022;-82
2023/05/31 07:28:19;;;;;;;4.20;1.20;;;17.80;71.10;;;;;;6124794;23;20326;-82
2023/05/31 07:30:46;;;;;;;4.57;2.25;;;17.80;70.90;;;;;;6100898;23;20360;-82
2023/05/31 07:33:13;;;;;;;2.67;1.08;;;17.90;70.70;;;;;;6100872;23;20380;-83
2023/05/31 07:35:58;;;;;;;3.90;1.20;;;18.00;70.60;;;;;;6125390;23;20195;-82
2023/05/31 07:38:25;;;;;;;4.28;1.63;;;18.10;70.20;;;;;;6149330;23;20018;-86
2023/05/31 07:40:52;;;;;;;3.50;1.20;;;18.20;70.10;;;;;;6076724;23;20018;-83
2023/05/31 07:43:23;;;;;;;2.60;1.00;;;18.20;70.00;;;;;;6125344;23;20512;-84
2023/05/31 07:45:50;;;;;;;3.45;1.13;;;18.30;69.90;;;;;;6149938;23;20009;-83
2023/05/31 07:48:18;;;;;;;3.28;1.20;;;18.40;69.70;;;;;;6105422;23;20454;-83
2023/05/31 07:50:45;;;;;;;3.53;1.40;;;18.40;69.60;;;;;;6105135;23;20025;-83
2023/05/31 07:53:13;;;;;;;4.80;1.30;;;18.50;69.40;;;;;;6129549;23;20026;-83
2023/05/31 07:55:40;;;;;;;2.42;1.05;;;18.60;69.20;;;;;;6105778;23;20032;-82
2023/05/31 07:58:08;;;;;;;3.47;1.25;;;18.70;69.70;;;;;;6154238;23;20025;-85
2023/05/31 08:00:44;;;;;;;4.65;1.23;;;18.80;68.80;;;;;;6130233;23;20017;-92
2023/05/31 08:03:11;;;;;;;4.15;1.00;;;18.90;68.50;;;;;;6106282;23;20100;-88
2023/05/31 08:06:20;;;;;;;4.10;1.58;;;19.00;68.40;;;;;;6130622;23;20021;-87
2023/05/31 08:08:47;;;;;;;3.72;1.30;;;19.00;68.10;;;;;;6154492;23;20017;-87
2023/05/31 08:11:16;;;;;;;4.50;1.42;;;19.10;68.00;;;;;;6105786;23;20021;-86
2023/05/31 08:13:44;;;;;;;2.58;0.85;;;19.20;67.70;;;;;;6129707;23;20021;-82
2023/05/31 08:16:11;;;;;;;2.70;0.95;;;19.30;67.60;;;;;;6105982;23;20025;-83
2023/05/31 08:18:38;;;;;;;2.92;1.17;;;19.50;67.40;;;;;;6130002;23;20064;-84
2023/05/31 08:21:05;;;;;;;2.80;1.05;;;19.60;67.20;;;;;;6129140;23;20021;-88
2023/05/31 08:23:32;;;;;;;4.10;1.10;;;19.60;67.00;;;;;;6105996;23;20053;-88
2023/05/31 08:25:59;;;;;;;4.57;1.55;;;19.70;66.80;;;;;;6130794;23;20348;-88
2023/05/31 08:28:30;;;;;;;3.97;1.53;;;19.80;66.60;;;;;;6130443;23;20021;-89
2023/05/31 08:30:58;;;;;;;3.35;1.20;;;19.90;66.30;;;;;;6130456;23;20391;-87
2023/05/31 08:33:31;;;;;;;6.78;1.85;;;19.90;66.10;;;;;;6082304;23;20135;-92
2023/05/31 08:35:59;;;;;;;3.45;1.25;;;20.00;65.90;;;;;;6154191;23;20057;-79
2023/05/31 08:38:27;;;;;;;3.95;1.13;;;20.00;65.70;;;;;;6104623;23;20021;-84
2023/05/31 08:41:02;;;;;;;3.65;1.23;;;20.20;65.40;;;;;;6153108;23;20022;-80
2023/05/31 08:43:30;;;;;;;2.88;1.27;;;20.30;65.20;;;;;;6154128;23;20021;-85
2023/05/31 08:45:58;;;;;;;5.00;2.03;;;20.40;64.80;;;;;;6148550;23;20026;-83
2023/05/31 08:48:35;;;;;;;4.60;1.98;;;20.40;64.70;;;;;;6099977;23;20441;-86
2023/05/31 08:51:05;;;;;;;4.05;1.33;;;20.40;64.60;;;;;;6124795;23;20456;-86
2023/05/31 08:53:34;;;;;;;4.60;1.55;;;20.40;64.40;;;;;;6124661;23;20472;-84
2023/05/31 08:56:04;;;;;;;2.85;0.88;;;20.50;64.30;;;;;;6148884;23;20032;-85
2023/05/31 08:58:35;;;;;;;3.15;1.17;;;20.60;64.20;;;;;;6124963;23;20026;-78
2023/05/31 09:01:03;;;;;;;4.22;1.27;;;20.70;63.80;;;;;;6123999;23;20026;-78
2023/05/31 09:03:32;;;;;;;3.58;1.40;;;20.80;63.60;;;;;;6099627;23;20022;-79
2023/05/31 09:05:59;;;;;;;3.72;0.90;;;20.90;63.40;;;;;;6148411;23;20113;-78
2023/05/31 09:08:26;;;;;;;3.03;1.17;;;21.00;63.20;;;;;;6124384;23;20408;-78
2023/05/31 09:10:53;;;;;;;4.53;1.48;;;21.10;62.90;;;;;;6148472;23;20053;-78
2023/05/31 09:13:21;;;;;;;3.78;1.25;;;21.10;62.70;;;;;;6099720;23;20030;-78
2023/05/31 09:15:50;;;;;;;3.20;1.10;;;21.20;62.50;;;;;;6124038;23;20026;-78
2023/05/31 09:18:20;;;;;;;3.22;0.93;;;21.20;62.40;;;;;;6076027;23;20029;-82
2023/05/31 09:20:48;;;;;;;4.03;1.42;;;21.30;62.20;;;;;;6148754;23;20022;-82
2023/05/31 09:23:19;;;;;;;3.97;1.50;;;21.40;62.00;;;;;;6124195;23;20109;-84
2023/05/31 09:25:51;;;;;;;2.70;1.00;;;21.50;61.90;;;;;;6124438;23;20349;-83
2023/05/31 09:28:20;;;;;;;2.42;1.00;;;21.60;61.60;;;;;;6148353;23;20085;-82
2023/05/31 09:31:03;;;;;;;3.22;0.75;;;21.60;61.40;;;;;;6125442;23;20022;-82
2023/05/31 09:33:51;;;;;;;2.58;0.85;;;21.70;60.90;;;;;;6099903;23;20033;-82
2023/05/31 09:36:26;;;;;;;3.55;1.10;;;21.80;60.70;;;;;;6148114;23;20029;-82
2023/05/31 09:39:05;;;;;;;1.90;0.57;;;21.80;60.40;;;;;;6125258;23;20022;-82
2023/05/31 09:41:33;;;;;;;2.05;0.95;;;21.90;61.00;;;;;;6123857;23;20018;-82
2023/05/31 09:44:00;;;;;;;4.72;1.55;;;21.90;60.10;;;;;;6124921;23;20022;-82
2023/05/31 09:46:28;;;;;;;2.78;0.80;;;22.00;60.00;;;;;;6152989;23;20022;-82
2023/05/31 09:49:09;;;;;;;2.10;0.70;;;22.10;59.80;;;;;;6129041;23;20025;-82
2023/05/31 09:51:36;;;;;;;2.28;0.70;;;22.20;59.20;;;;;;6128509;23;20028;-82
2023/05/31 09:54:11;;;;;;;3.80;0.80;;;22.30;59.10;;;;;;6129069;23;20026;-82
2023/05/31 09:56:41;;;;;;;2.63;0.73;;;22.30;58.50;;;;;;6153324;23;20021;-83
2023/05/31 09:59:09;;;;;;;1.55;0.60;;;22.40;58.60;;;;;;6128788;23;20033;-82
2023/05/31 10:01:37;;;;;;;3.28;0.82;;;22.40;58.50;;;;;;6128418;23;20045;-82
2023/05/31 10:04:05;;;;;;;3.00;0.70;;;22.50;58.30;;;;;;6153120;23;20408;-82
2023/05/31 10:06:36;;;;;;;1.63;0.57;;;22.60;58.10;;;;;;6105965;23;20041;-82
2023/05/31 10:09:04;;;;;;;2.05;0.60;;;22.70;57.90;;;;;;6104953;23;20343;-84
2023/05/31 10:11:41;;;;;;;2.92;0.70;;;22.80;57.60;;;;;;6153253;23;20029;-84
2023/05/31 10:14:29;;;;;;;2.25;0.80;;;22.80;57.30;;;;;;6152787;23;20029;-85
2023/05/31 10:17:02;;;;;;;2.63;0.60;;;22.80;57.30;;;;;;6152978;23;20032;-85
2023/05/31 10:19:44;;;;;;;2.45;0.70;;;22.80;57.40;;;;;;6154523;23;20045;-83
2023/05/31 10:22:13;;;;;;;1.83;0.50;;;22.90;57.20;;;;;;6152677;23;20018;-83
2023/05/31 10:24:51;;;;;;;3.92;0.60;;;23.00;57.10;;;;;;6154135;23;20379;-83
2023/05/31 10:27:32;;;;;;;4.97;1.20;;;23.20;56.50;;;;;;6129116;23;20047;-83
2023/05/31 10:30:05;;;;;;;3.17;1.00;;;23.20;56.40;;;;;;6152838;23;20045;-84
2023/05/31 10:32:46;;;;;;;1.48;0.70;;;23.20;56.30;;;;;;6152684;23;20021;-82
2023/05/31 10:35:13;;;;;;;2.80;0.82;;;23.20;56.30;;;;;;6152175;23;20032;-84
2023/05/31 10:37:41;;;;;;;1.65;0.77;;;23.20;56.40;;;;;;6080195;23;20052;-84
2023/05/31 10:40:18;;;;;;;3.65;1.15;;;23.20;56.30;;;;;;6153119;23;20025;-84
2023/05/31 10:42:54;;;;;;;1.90;1.00;;;23.30;56.20;;;;;;6128502;23;20021;-83
2023/05/31 10:45:39;;;;;;;3.17;0.98;;;23.40;56.10;;;;;;6147870;23;20026;-83
2023/05/31 10:48:38;;;;;;;3.63;0.95;;;23.50;55.70;;;;;;6123554;23;20025;-83
2023/05/31 10:51:06;;;;;;;1.95;0.80;;;23.50;55.70;;;;;;6148573;23;20026;-83
2023/05/31 10:53:39;;;;;;;3.40;1.00;;;23.50;55.70;;;;;;6124120;23;20089;-83
2023/05/31 10:56:11;;;;;;;2.65;0.85;;;23.70;55.70;;;;;;6125432;23;20041;-82
2023/05/31 10:58:42;;;;;;;2.33;0.68;;;23.80;55.50;;;;;;6127234;23;20072;-88
2023/05/31 11:01:13;;;;;;;3.08;0.73;;;23.90;55.20;;;;;;6126413;23;20014;-88
2023/05/31 11:03:57;;;;;;;2.58;0.73;;;24.00;54.70;;;;;;6127396;23;20022;-89
2023/05/31 11:06:38;;;;;;;2.28;0.77;;;24.10;54.40;;;;;;6126762;23;20071;-89
2023/05/31 11:09:16;;;;;;;2.65;0.70;;;24.10;54.40;;;;;;6126741;23;20022;-88
2023/05/31 11:11:46;;;;;;;1.73;0.70;;;24.20;54.20;;;;;;6150811;23;20033;-88
2023/05/31 11:14:27;;;;;;;2.78;0.65;;;24.10;53.90;;;;;;6125655;23;20048;-83
2023/05/31 11:16:57;;;;;;;3.83;0.90;;;24.10;53.80;;;;;;6100819;23;20028;-83
2023/05/31 11:19:28;;;;;;;1.77;0.60;;;24.10;53.70;;;;;;6100791;23;20025;-84
2023/05/31 11:22:05;;;;;;;3.83;0.87;;;24.20;53.70;;;;;;6125160;23;20018;-83
2023/05/31 11:24:51;;;;;;;2.65;0.98;;;24.30;53.30;;;;;;6125004;23;20089;-82
2023/05/31 11:27:19;;;;;;;2.05;0.80;;;24.30;53.00;;;;;;6077410;23;20018;-83
2023/05/31 11:29:52;;;;;;;2.08;0.50;;;24.30;52.80;;;;;;6125020;23;20026;-83
2023/05/31 11:32:22;;;;;;;3.03;0.60;;;24.30;52.80;;;;;;6124960;23;20037;-83
2023/05/31 11:35:11;;;;;;;2.97;1.05;;;24.40;52.60;;;;;;6126233;23;20351;-83
2023/05/31 11:37:40;;;;;;;2.88;0.75;;;24.40;52.10;;;;;;6149251;23;20108;-83
2023/05/31 11:40:12;;;;;;;4.00;0.80;;;24.50;52.10;;;;;;6149758;23;20505;-83
2023/05/31 11:42:45;;;;;;;3.05;0.90;;;24.70;51.80;;;;;;6124876;23;20025;-78
2023/05/31 11:45:14;;;;;;;2.05;0.70;;;24.80;51.50;;;;;;6140295;23;20072;-78
2023/05/31 11:47:44;;;;;;;2.38;0.80;;;25.00;51.20;;;;;;6154181;23;20025;-78
2023/05/31 11:50:17;;;;;;;3.92;1.00;;;25.30;50.70;;;;;;6154199;23;20018;-78
2023/05/31 11:52:45;;;;;;;2.10;0.77;;;25.30;50.50;;;;;;6154038;23;20511;-78
2023/05/31 11:55:17;;;;;;;3.03;1.00;;;25.40;50.30;;;;;;6153820;23;20022;-78
2023/05/31 11:57:46;;;;;;;2.90;1.15;;;25.60;50.00;;;;;;6154180;23;20013;-77
2023/05/31 12:00:15;;;;;;;1.80;0.80;;;25.80;50.00;;;;;;6153742;23;20503;-78
2023/05/31 12:02:44;;;;;;;1.50;0.60;;;26.10;49.70;;;;;;6105591;23;20116;-77
2023/05/31 12:05:12;;;;;;;2.15;0.70;;;26.40;49.50;;;;;;6154019;23;20064;-78
2023/05/31 12:07:39;;;;;;;4.00;0.70;;;26.70;48.90;;;;;;6129266;23;20029;-78
2023/05/31 12:10:08;;;;;;;2.17;0.60;;;27.00;48.70;;;;;;6129464;23;20072;-78
2023/05/31 12:12:35;;;;;;;3.00;0.90;;;27.40;48.40;;;;;;6155312;23;20018;-78
2023/05/31 12:15:03;;;;;;;2.95;0.73;;;27.70;48.10;;;;;;6154283;23;20128;-78
2023/05/31 12:17:32;;;;;;;3.28;0.95;;;27.80;47.90;;;;;;6129776;23;20017;-78
2023/05/31 12:20:04;;;;;;;;;;;27.90;47.60;;;;;;6154374;23;20028;-78
2023/05/31 12:22:31;;;;;;;2.28;0.90;;;27.90;47.80;;;;;;6129110;23;19923;-78
2023/05/31 12:24:59;;;;;;;1.95;0.85;;;28.10;47.60;;;;;;6129639;23;20017;-78
2023/05/31 12:27:29;;;;;;;2.42;0.90;;;28.40;47.30;;;;;;6153768;23;20054;-78
2023/05/31 12:30:21;;;;;;;3.35;1.00;;;28.80;47.00;;;;;;6133112;23;20017;-78
2023/05/31 12:32:57;;;;;;;5.05;0.88;;;29.10;46.30;;;;;;6153729;23;20326;-78
2023/05/31 12:35:26;;;;;;;3.45;0.93;;;29.10;46.20;;;;;;6129061;23;20410;-79
2023/05/31 12:37:54;;;;;;;2.22;0.70;;;29.30;46.20;;;;;;6129330;23;20108;-78
2023/05/31 12:40:22;;;;;;;3.92;1.08;;;29.80;45.90;;;;;;6155169;23;20045;-79
2023/05/31 12:42:50;;;;;;;1.98;0.70;;;30.20;45.20;;;;;;6154225;23;20017;-79
2023/05/31 12:45:21;;;;;;;2.17;0.60;;;30.30;45.20;;;;;;6129028;23;20022;-78
2023/05/31 12:47:57;;;;;;;1.95;0.63;;;30.70;44.90;;;;;;6083162;23;20022;-77
2023/05/31 12:50:28;;;;;;;2.50;0.80;;;31.00;44.20;;;;;;6153564;23;20013;-77
2023/05/31 12:52:56;;;;;;;2.57;0.63;;;31.00;44.10;;;;;;6154996;23;20017;-78
2023/05/31 12:55:23;;;;;;;1.73;0.60;;;31.20;44.80;;;;;;6154869;23;20336;-77
2023/05/31 12:57:52;;;;;;;3.58;1.02;;;31.50;44.70;;;;;;6129602;23;20037;-78
2023/05/31 13:00:21;;;;;;;2.42;0.85;;;31.80;43.50;;;;;;6104758;23;20032;-75
2023/05/31 13:02:51;;;;;;;2.80;0.97;;;32.00;43.30;;;;;;6153089;23;20045;-76
2023/05/31 13:05:19;;;;;;;2.42;0.80;;;32.00;43.00;;;;;;6128999;23;20025;-76